Time;durP1;ratioP1;P1;durP2;ratioP2;P2;SDS_P1;SDS_P2;PMS_P1;PMS_P2;Temp;Humidity;BMP_temperature;BMP_pressure;BME280_temperature;BME280_humidity;BME280_pressure;Samples;Min_cycle;Max_cycle;Signal;HPM_P1;HPM_P2
2023/09/25 00:01:47;;;;;;;8.82;3.03;;;;;;;;;;4998926;28;20038;-59
2023/09/25 00:04:12;;;;;;;7.63;3.10;;;;;;;;;;5004904;28;20057;-59
2023/09/25 00:06:37;;;;;;;9.83;3.57;;;;;;;;;;5004255;28;20277;-59
2023/09/25 00:09:03;;;;;;;7.07;3.37;;;;;;;;;;5006009;28;20276;-58
2023/09/25 00:11:29;;;;;;;9.20;3.40;;;;;;;;;;5005327;28;20685;-58
2023/09/25 00:13:56;;;;;;;8.40;3.25;;;;;;;;;;5005297;28;20041;-59
2023/09/25 00:16:21;;;;;;;12.18;3.80;;;;;;;;;;5003870;28;20046;-59
2023/09/25 00:18:47;;;;;;;10.57;3.70;;;;;;;;;;5005902;28;20521;-59
2023/09/25 00:21:12;;;;;;;7.45;2.97;;;;;;;;;;5005183;28;20284;-59
2023/09/25 00:23:38;;;;;;;7.65;3.60;;;;;;;;;;5004864;28;20037;-59
2023/09/25 00:26:04;;;;;;;7.25;3.28;;;;;;;;;;5003297;28;20490;-60
2023/09/25 00:28:29;;;;;;;8.10;3.30;;;;;;;;;;5005270;28;20480;-58
2023/09/25 00:30:54;;;;;;;8.55;3.25;;;;;;;;;;5005216;28;20030;-59
2023/09/25 00:33:19;;;;;;;10.63;3.57;;;;;;;;;;5004655;28;20088;-59
2023/09/25 00:35:45;;;;;;;8.77;3.30;;;;;;;;;;5004707;28;20335;-59
2023/09/25 00:38:10;;;;;;;9.97;3.60;;;;;;;;;;5005448;28;20812;-58
2023/09/25 00:40:36;;;;;;;9.07;3.28;;;;;;;;;;5005492;28;20283;-59
2023/09/25 00:43:02;;;;;;;7.30;3.33;;;;;;;;;;5004882;28;20040;-58
2023/09/25 00:45:28;;;;;;;9.60;3.20;;;;;;;;;;5005247;28;20037;-59
2023/09/25 00:47:54;;;;;;;13.38;4.35;;;;;;;;;;5007006;28;20069;-59
2023/09/25 00:50:19;;;;;;;8.48;3.30;;;;;;;;;;5009396;28;20066;-58
2023/09/25 00:52:44;;;;;;;9.50;3.00;;;;;;;;;;5008646;28;20061;-59
2023/09/25 00:55:10;;;;;;;8.23;4.00;;;;;;;;;;5007703;28;20443;-59
2023/09/25 00:57:35;;;;;;;6.75;3.50;;;;;;;;;;5009526;28;20049;-57
2023/09/25 01:00:06;;;;;;;8.82;3.47;;;;;;;;;;5008177;28;20037;-57
2023/09/25 01:02:31;;;;;;;8.63;3.17;;;;;;;;;;4991019;28;20053;-58
2023/09/25 01:05:00;;;;;;;10.43;3.60;;;;;;;;;;5009013;28;20406;-57
2023/09/25 01:07:25;;;;;;;8.77;3.70;;;;;;;;;;5009240;28;20882;-57
2023/09/25 01:10:03;;;;;;;8.80;3.47;;;;;;;;;;5023556;28;20041;-57
2023/09/25 01:12:28;;;;;;;8.20;3.20;;;;;;;;;;5007229;28;20333;-58
2023/09/25 01:14:54;;;;;;;8.40;3.63;;;;;;;;;;5008749;28;20065;-58
2023/09/25 01:17:19;;;;;;;8.63;3.50;;;;;;;;;;5009070;28;20700;-58
2023/09/25 01:19:45;;;;;;;10.20;3.50;;;;;;;;;;5008586;28;20046;-58
2023/09/25 01:22:11;;;;;;;10.18;3.28;;;;;;;;;;4990683;28;20529;-58
2023/09/25 01:24:36;;;;;;;11.30;3.40;;;;;;;;;;5008282;28;20038;-58
2023/09/25 01:27:01;;;;;;;6.78;3.30;;;;;;;;;;5008037;28;20507;-58
2023/09/25 01:29:26;;;;;;;8.63;3.73;;;;;;;;;;5008644;28;20068;-57
2023/09/25 01:31:52;;;;;;;7.93;3.00;;;;;;;;;;5023081;28;20673;-58
2023/09/25 01:34:17;;;;;;;10.27;3.57;;;;;;;;;;5008042;28;20397;-58
2023/09/25 01:36:42;;;;;;;6.67;3.43;;;;;;;;;;5008548;28;20281;-58
2023/09/25 01:39:08;;;;;;;8.30;3.20;;;;;;;;;;5008316;28;20352;-58
2023/09/25 01:41:33;;;;;;;10.38;3.65;;;;;;;;;;5008029;28;20289;-57
2023/09/25 01:43:58;;;;;;;6.70;3.30;;;;;;;;;;5007302;28;20573;-58
2023/09/25 01:46:23;;;;;;;9.77;3.30;;;;;;;;;;5006734;28;20281;-58
2023/09/25 01:48:49;;;;;;;9.10;3.70;;;;;;;;;;5007632;28;20187;-57
2023/09/25 01:51:14;;;;;;;9.32;3.55;;;;;;;;;;5008185;28;20673;-58
2023/09/25 01:53:39;;;;;;;7.78;3.38;;;;;;;;;;4989769;28;20132;-58
2023/09/25 01:56:14;;;;;;;9.30;3.45;;;;;;;;;;5008453;28;20057;-58
2023/09/25 01:58:44;;;;;;;8.52;3.80;;;;;;;;;;5006860;28;20045;-58
2023/09/25 02:01:09;;;;;;;7.05;3.50;;;;;;;;;;5000320;28;20021;-57
2023/09/25 02:03:34;;;;;;;5.00;2.95;;;;;;;;;;5005354;28;20014;-58
2023/09/25 02:06:00;;;;;;;6.87;2.73;;;;;;;;;;5007735;28;20538;-59
2023/09/25 02:08:25;;;;;;;8.93;3.08;;;;;;;;;;5007245;28;20284;-58
2023/09/25 02:10:50;;;;;;;9.02;3.40;;;;;;;;;;5007555;28;20124;-58
2023/09/25 02:13:16;;;;;;;9.55;2.95;;;;;;;;;;5007308;28;20032;-59
2023/09/25 02:15:41;;;;;;;7.90;2.97;;;;;;;;;;5007774;28;20048;-59
2023/09/25 02:18:08;;;;;;;8.13;3.17;;;;;;;;;;5007158;28;20261;-58
2023/09/25 02:20:34;;;;;;;7.78;3.33;;;;;;;;;;5007909;28;20253;-58
2023/09/25 02:22:59;;;;;;;8.73;3.40;;;;;;;;;;5007109;28;20621;-58
2023/09/25 02:25:24;;;;;;;8.20;2.75;;;;;;;;;;5007614;28;20300;-58
2023/09/25 02:27:49;;;;;;;7.33;3.20;;;;;;;;;;5006921;28;20053;-58
2023/09/25 02:30:15;;;;;;;6.00;2.90;;;;;;;;;;5007572;28;20273;-58
2023/09/25 02:32:42;;;;;;;6.38;2.88;;;;;;;;;;4988587;28;20037;-59
2023/09/25 02:35:07;;;;;;;8.52;2.90;;;;;;;;;;5006674;28;20045;-59
2023/09/25 02:37:33;;;;;;;8.15;2.92;;;;;;;;;;5006821;28;20104;-59
2023/09/25 02:39:58;;;;;;;4.97;2.78;;;;;;;;;;5022560;28;20143;-59
2023/09/25 02:42:23;;;;;;;7.47;3.10;;;;;;;;;;5006858;28;20088;-59
2023/09/25 02:44:49;;;;;;;9.73;2.80;;;;;;;;;;5005707;28;20073;-59
2023/09/25 02:47:14;;;;;;;8.67;3.07;;;;;;;;;;5007115;28;20052;-58
2023/09/25 02:49:40;;;;;;;8.57;3.07;;;;;;;;;;5007228;28;20360;-58
2023/09/25 02:52:05;;;;;;;6.20;2.72;;;;;;;;;;5005736;28;20276;-58
2023/09/25 02:54:30;;;;;;;7.73;3.30;;;;;;;;;;5005707;28;20053;-57
2023/09/25 02:56:56;;;;;;;7.80;3.15;;;;;;;;;;5006622;28;20284;-58
2023/09/25 02:59:21;;;;;;;7.40;3.30;;;;;;;;;;5006640;28;20041;-58
2023/09/25 03:01:46;;;;;;;5.20;3.20;;;;;;;;;;5006389;28;20265;-58
2023/09/25 03:04:12;;;;;;;6.47;3.20;;;;;;;;;;5006638;28;20338;-58
2023/09/25 03:06:37;;;;;;;7.95;3.65;;;;;;;;;;5006763;28;20485;-58
2023/09/25 03:09:03;;;;;;;5.73;3.60;;;;;;;;;;5006102;28;20026;-58
2023/09/25 03:11:30;;;;;;;5.25;3.45;;;;;;;;;;5006046;28;20269;-58
2023/09/25 03:13:55;;;;;;;5.60;3.70;;;;;;;;;;5006281;28;20033;-58
2023/09/25 03:16:20;;;;;;;8.00;3.90;;;;;;;;;;5006511;28;20034;-58
2023/09/25 03:18:46;;;;;;;4.97;3.70;;;;;;;;;;5006817;28;20354;-58
2023/09/25 03:21:11;;;;;;;7.07;3.88;;;;;;;;;;5006500;28;20280;-58
2023/09/25 03:23:37;;;;;;;8.13;3.90;;;;;;;;;;5005764;28;20034;-58
2023/09/25 03:26:02;;;;;;;10.15;4.50;;;;;;;;;;5005920;28;20287;-58
2023/09/25 03:28:27;;;;;;;9.48;4.05;;;;;;;;;;5006504;28;20509;-58
2023/09/25 03:30:53;;;;;;;6.97;3.90;;;;;;;;;;5006558;28;20054;-59
2023/09/25 03:33:21;;;;;;;9.27;4.07;;;;;;;;;;5006326;28;20300;-58
2023/09/25 03:35:46;;;;;;;8.48;4.68;;;;;;;;;;5003630;28;20054;-59
2023/09/25 03:38:11;;;;;;;8.83;4.60;;;;;;;;;;5005751;28;20491;-58
2023/09/25 03:40:36;;;;;;;7.93;4.33;;;;;;;;;;5006174;28;20275;-59
2023/09/25 03:43:02;;;;;;;9.10;5.00;;;;;;;;;;5006624;28;20277;-58
2023/09/25 03:45:28;;;;;;;7.72;5.40;;;;;;;;;;5005431;28;20429;-58
2023/09/25 03:47:53;;;;;;;8.98;5.53;;;;;;;;;;5006189;28;20038;-59
2023/09/25 03:50:18;;;;;;;9.77;5.60;;;;;;;;;;5006288;28;20034;-59
2023/09/25 03:52:43;;;;;;;11.68;6.53;;;;;;;;;;5005976;28;20042;-58
2023/09/25 03:55:09;;;;;;;10.77;6.82;;;;;;;;;;5005671;28;20045;-59
2023/09/25 03:57:34;;;;;;;10.30;7.05;;;;;;;;;;5005844;28;20046;-58
2023/09/25 03:59:59;;;;;;;9.85;7.00;;;;;;;;;;5004819;28;20034;-58
2023/09/25 04:02:25;;;;;;;11.13;7.57;;;;;;;;;;4990040;28;20458;-58
2023/09/25 04:04:51;;;;;;;10.70;7.33;;;;;;;;;;5003070;28;20445;-59
2023/09/25 04:07:16;;;;;;;11.38;7.68;;;;;;;;;;5005728;28;20277;-58
2023/09/25 04:09:41;;;;;;;10.63;7.65;;;;;;;;;;5006324;28;20129;-58
2023/09/25 04:12:08;;;;;;;12.60;8.52;;;;;;;;;;5006234;28;20022;-59
2023/09/25 04:14:35;;;;;;;11.75;8.30;;;;;;;;;;5005423;28;20065;-58
2023/09/25 04:17:01;;;;;;;12.52;7.88;;;;;;;;;;4988951;28;20569;-58
2023/09/25 04:19:27;;;;;;;13.15;8.18;;;;;;;;;;5006366;28;20325;-59
2023/09/25 04:21:52;;;;;;;11.88;7.82;;;;;;;;;;5004878;28;20046;-58
2023/09/25 04:24:18;;;;;;;13.43;7.63;;;;;;;;;;5005420;28;20474;-58
2023/09/25 04:26:43;;;;;;;12.20;7.80;;;;;;;;;;5005317;28;20030;-58
2023/09/25 04:29:14;;;;;;;10.23;7.17;;;;;;;;;;5005572;28;20108;-58
2023/09/25 04:31:39;;;;;;;11.80;7.05;;;;;;;;;;5004689;28;20308;-58
2023/09/25 04:34:04;;;;;;;14.43;7.30;;;;;;;;;;5004350;28;20447;-58
2023/09/25 04:36:30;;;;;;;12.25;7.82;;;;;;;;;;5003868;28;20311;-57
2023/09/25 04:38:55;;;;;;;14.88;8.30;;;;;;;;;;5004124;28;20556;-58
2023/09/25 04:41:21;;;;;;;13.05;8.27;;;;;;;;;;5019417;28;20109;-58
2023/09/25 04:43:47;;;;;;;11.52;7.20;;;;;;;;;;5004291;28;20033;-58
2023/09/25 04:46:13;;;;;;;11.80;6.97;;;;;;;;;;5003684;28;20080;-57
2023/09/25 04:48:38;;;;;;;10.65;6.30;;;;;;;;;;5004805;28;20030;-57
2023/09/25 04:51:03;;;;;;;9.13;5.80;;;;;;;;;;5005024;28;20042;-58
2023/09/25 04:53:29;;;;;;;8.93;5.63;;;;;;;;;;4989154;28;20817;-58
2023/09/25 04:55:55;;;;;;;13.25;5.95;;;;;;;;;;4989255;28;20332;-58
2023/09/25 04:58:20;;;;;;;10.73;6.18;;;;;;;;;;4989062;28;20060;-57
2023/09/25 05:00:46;;;;;;;11.77;6.53;;;;;;;;;;4989047;28;20522;-58
2023/09/25 05:03:11;;;;;;;8.85;6.40;;;;;;;;;;4993025;28;20285;-58
2023/09/25 05:05:36;;;;;;;8.13;6.17;;;;;;;;;;4994258;28;20437;-58
2023/09/25 05:08:02;;;;;;;12.07;7.40;;;;;;;;;;4993653;28;20296;-58
2023/09/25 05:10:27;;;;;;;10.32;6.38;;;;;;;;;;4993696;28;20499;-58
2023/09/25 05:12:53;;;;;;;9.98;7.28;;;;;;;;;;4994226;28;20127;-57
2023/09/25 05:15:18;;;;;;;10.23;6.80;;;;;;;;;;4993356;28;21856;-58
2023/09/25 05:17:44;;;;;;;11.93;7.70;;;;;;;;;;4994234;28;20045;-59
2023/09/25 05:20:15;;;;;;;12.45;8.23;;;;;;;;;;4994034;28;20499;-59
2023/09/25 05:22:41;;;;;;;13.13;7.80;;;;;;;;;;4990673;28;20052;-59
2023/09/25 05:25:10;;;;;;;11.50;7.97;;;;;;;;;;4990919;28;20112;-58
2023/09/25 05:27:36;;;;;;;13.05;7.60;;;;;;;;;;4979277;28;20805;-58
2023/09/25 05:30:02;;;;;;;9.05;7.00;;;;;;;;;;4991866;28;20162;-58
2023/09/25 05:32:27;;;;;;;11.05;7.32;;;;;;;;;;4990639;28;20194;-58
2023/09/25 05:34:54;;;;;;;12.20;7.35;;;;;;;;;;4995421;28;20042;-58
2023/09/25 05:37:19;;;;;;;11.18;7.10;;;;;;;;;;4995332;28;20145;-58
2023/09/25 05:39:44;;;;;;;10.13;6.38;;;;;;;;;;4978433;28;20100;-58
2023/09/25 05:42:10;;;;;;;9.02;6.57;;;;;;;;;;4999696;28;20384;-58
2023/09/25 05:44:35;;;;;;;13.23;6.60;;;;;;;;;;4986016;28;20034;-58
2023/09/25 05:47:00;;;;;;;8.60;6.07;;;;;;;;;;5005871;28;20891;-58
2023/09/25 05:49:25;;;;;;;9.83;6.20;;;;;;;;;;5004102;28;20104;-58
2023/09/25 05:51:53;;;;;;;10.02;6.68;;;;;;;;;;4996258;28;20289;-58
2023/09/25 05:54:19;;;;;;;11.38;6.68;;;;;;;;;;5002735;28;20084;-59
2023/09/25 05:56:44;;;;;;;10.30;6.90;;;;;;;;;;4999129;28;20038;-58
2023/09/25 05:59:10;;;;;;;11.57;6.43;;;;;;;;;;5002956;28;20038;-60
2023/09/25 06:01:35;;;;;;;9.90;7.05;;;;;;;;;;5002171;28;20280;-59
2023/09/25 06:04:00;;;;;;;9.77;7.05;;;;;;;;;;5001485;28;20049;-59
2023/09/25 06:06:25;;;;;;;14.27;6.75;;;;;;;;;;5002431;28;20525;-59
2023/09/25 06:08:51;;;;;;;12.27;7.87;;;;;;;;;;4986301;28;20478;-60
2023/09/25 06:11:17;;;;;;;12.82;8.15;;;;;;;;;;4984159;28;20331;-59
2023/09/25 06:13:42;;;;;;;11.43;7.80;;;;;;;;;;5007008;28;20088;-60
2023/09/25 06:16:09;;;;;;;10.00;7.25;;;;;;;;;;5001735;28;20474;-58
2023/09/25 06:18:36;;;;;;;12.00;7.68;;;;;;;;;;4995629;28;20119;-60
2023/09/25 06:21:01;;;;;;;10.82;7.97;;;;;;;;;;5007043;28;20042;-59
2023/09/25 06:23:26;;;;;;;13.45;8.30;;;;;;;;;;4980718;28;20423;-59
2023/09/25 06:25:53;;;;;;;13.80;7.60;;;;;;;;;;5000686;28;20088;-59
2023/09/25 06:28:23;;;;;;;14.18;8.13;;;;;;;;;;4998306;28;20034;-58
2023/09/25 06:30:48;;;;;;;;;;;;;;;;;;5001656;28;20066;-58
2023/09/25 06:33:14;;;;;;;14.05;7.85;;;;;;;;;;4996458;28;20385;-58
2023/09/25 06:35:39;;;;;;;13.53;8.43;;;;;;;;;;4996547;28;20049;-60
2023/09/25 06:38:04;;;;;;;9.88;7.95;;;;;;;;;;5002263;28;20269;-59
2023/09/25 06:40:29;;;;;;;14.68;8.77;;;;;;;;;;5005916;28;20042;-58
2023/09/25 06:42:55;;;;;;;13.03;8.27;;;;;;;;;;4983938;28;20462;-58
2023/09/25 06:45:21;;;;;;;15.30;8.80;;;;;;;;;;4980189;28;20297;-58
2023/09/25 06:47:47;;;;;;;14.82;8.40;;;;;;;;;;4995203;28;20300;-59
2023/09/25 06:50:12;;;;;;;14.30;9.30;;;;;;;;;;4994023;28;20483;-59
2023/09/25 06:52:37;;;;;;;12.02;9.15;;;;;;;;;;4975327;28;20034;-59
2023/09/25 06:55:03;;;;;;;13.93;8.93;;;;;;;;;;5002046;28;20044;-60
2023/09/25 06:57:29;;;;;;;14.13;9.85;;;;;;;;;;5002491;28;20273;-60
2023/09/25 06:59:54;;;;;;;13.07;8.85;;;;;;;;;;4998738;28;20035;-60
2023/09/25 07:02:20;;;;;;;16.50;9.27;;;;;;;;;;5003089;28;20042;-60
2023/09/25 07:04:47;;;;;;;12.35;8.65;;;;;;;;;;4981649;28;20273;-60
2023/09/25 07:07:12;;;;;;;12.85;9.15;;;;;;;;;;5010745;28;20430;-59
2023/09/25 07:09:37;;;;;;;15.85;9.85;;;;;;;;;;5004128;28;20038;-60
2023/09/25 07:12:03;;;;;;;14.57;9.70;;;;;;;;;;4986733;28;20041;-60
2023/09/25 07:14:28;;;;;;;17.30;10.10;;;;;;;;;;4985748;28;20061;-60
2023/09/25 07:16:53;;;;;;;14.27;10.13;;;;;;;;;;4982382;28;20467;-59
2023/09/25 07:19:19;;;;;;;12.93;9.83;;;;;;;;;;5002808;28;20037;-59
2023/09/25 07:21:44;;;;;;;15.77;9.87;;;;;;;;;;4998423;28;20392;-60
2023/09/25 07:24:09;;;;;;;14.52;9.60;;;;;;;;;;5005705;28;20284;-60
2023/09/25 07:26:34;;;;;;;15.50;10.75;;;;;;;;;;5007026;28;20038;-60
2023/09/25 07:29:00;;;;;;;12.50;9.35;;;;;;;;;;5000512;28;20451;-60
2023/09/25 07:31:26;;;;;;;15.93;10.47;;;;;;;;;;4987971;28;20046;-60
2023/09/25 07:33:54;;;;;;;13.30;9.80;;;;;;;;;;4999460;28;20404;-60
2023/09/25 07:36:20;;;;;;;15.95;10.70;;;;;;;;;;5001686;28;20080;-60
2023/09/25 07:38:48;;;;;;;17.10;10.27;;;;;;;;;;5002330;28;20391;-61
2023/09/25 07:41:13;;;;;;;16.65;10.75;;;;;;;;;;5003160;28;20491;-58
2023/09/25 07:43:39;;;;;;;13.27;10.32;;;;;;;;;;4996652;28;20065;-61
2023/09/25 07:46:04;;;;;;;16.00;10.50;;;;;;;;;;5001319;28;20522;-59
2023/09/25 07:48:30;;;;;;;17.95;10.95;;;;;;;;;;5010612;28;20525;-58
2023/09/25 07:50:58;;;;;;;14.38;10.27;;;;;;;;;;5003230;28;20096;-59
2023/09/25 07:53:23;;;;;;;16.08;10.48;;;;;;;;;;4978514;28;20459;-60
2023/09/25 07:55:49;;;;;;;16.17;10.45;;;;;;;;;;4997557;28;20057;-59
2023/09/25 07:58:14;;;;;;;14.43;10.18;;;;;;;;;;4996557;28;20053;-60
2023/09/25 08:00:44;;;;;;;15.23;9.90;;;;;;;;;;4999725;28;20037;-60
2023/09/25 08:03:09;;;;;;;14.88;9.13;;;;;;;;;;4983118;28;20297;-58
2023/09/25 08:05:35;;;;;;;15.48;9.75;;;;;;;;;;4992060;28;20100;-59
2023/09/25 08:08:01;;;;;;;13.20;9.23;;;;;;;;;;4989002;28;20038;-61
2023/09/25 08:10:26;;;;;;;13.68;8.80;;;;;;;;;;4992064;28;20065;-60
2023/09/25 08:12:52;;;;;;;10.00;7.43;;;;;;;;;;4975895;28;20038;-61
2023/09/25 08:15:17;;;;;;;12.52;6.85;;;;;;;;;;4980522;28;20438;-60
2023/09/25 08:17:43;;;;;;;11.18;6.75;;;;;;;;;;4978830;28;20034;-60
2023/09/25 08:20:20;;;;;;;11.15;6.55;;;;;;;;;;4992818;28;20487;-60
2023/09/25 08:22:45;;;;;;;10.13;6.95;;;;;;;;;;4989080;28;20430;-61
2023/09/25 08:25:11;;;;;;;10.00;6.70;;;;;;;;;;4992257;28;20030;-61
2023/09/25 08:27:39;;;;;;;8.63;6.15;;;;;;;;;;4973883;28;20061;-60
2023/09/25 08:30:04;;;;;;;11.43;6.57;;;;;;;;;;4992556;28;20101;-60
2023/09/25 08:32:31;;;;;;;9.48;5.85;;;;;;;;;;4990749;28;20136;-60
2023/09/25 08:34:56;;;;;;;8.63;6.28;;;;;;;;;;4991669;28;20033;-60
2023/09/25 08:37:21;;;;;;;7.93;5.40;;;;;;;;;;4989860;28;20417;-59
2023/09/25 08:39:47;;;;;;;9.32;5.72;;;;;;;;;;4990582;28;20523;-59
2023/09/25 08:42:12;;;;;;;9.52;5.07;;;;;;;;;;4992422;28;20026;-58
2023/09/25 08:44:37;;;;;;;7.05;4.80;;;;;;;;;;4979772;28;20025;-58
2023/09/25 08:47:03;;;;;;;8.17;5.10;;;;;;;;;;4991650;28;20023;-59
2023/09/25 08:49:28;;;;;;;6.55;4.70;;;;;;;;;;4973042;28;20864;-59
2023/09/25 08:51:53;;;;;;;9.80;4.72;;;;;;;;;;4991973;28;20041;-60
2023/09/25 08:54:19;;;;;;;7.25;4.60;;;;;;;;;;4991686;28;20026;-60
2023/09/25 08:56:45;;;;;;;8.37;4.57;;;;;;;;;;4991775;28;20023;-59
2023/09/25 08:59:10;;;;;;;6.82;4.57;;;;;;;;;;4978981;28;21026;-58
2023/09/25 09:01:36;;;;;;;7.53;4.30;;;;;;;;;;4974036;28;20030;-59
2023/09/25 09:04:01;;;;;;;10.07;4.47;;;;;;;;;;4990248;28;20487;-58
2023/09/25 09:06:26;;;;;;;8.25;4.30;;;;;;;;;;4988917;28;20478;-58
2023/09/25 09:08:52;;;;;;;8.93;4.47;;;;;;;;;;4977227;28;20033;-58
2023/09/25 09:11:17;;;;;;;9.00;4.03;;;;;;;;;;4996224;28;20083;-58
2023/09/25 09:13:51;;;;;;;8.88;4.53;;;;;;;;;;4993930;28;20032;-58
2023/09/25 09:16:17;;;;;;;6.50;4.43;;;;;;;;;;4995961;28;20056;-59
2023/09/25 09:18:42;;;;;;;7.88;4.32;;;;;;;;;;4982631;28;20487;-59
2023/09/25 09:21:21;;;;;;;6.38;4.57;;;;;;;;;;4995167;28;20061;-60
2023/09/25 09:23:46;;;;;;;7.75;4.47;;;;;;;;;;4995433;28;20052;-60
2023/09/25 09:26:14;;;;;;;7.07;4.60;;;;;;;;;;4996290;28;20583;-59
2023/09/25 09:28:43;;;;;;;6.70;4.28;;;;;;;;;;4995885;28;20035;-60
2023/09/25 09:31:10;;;;;;;7.60;4.57;;;;;;;;;;4995345;28;20064;-60
2023/09/25 09:33:41;;;;;;;8.40;4.90;;;;;;;;;;4996151;28;20034;-60
2023/09/25 09:36:07;;;;;;;7.50;4.32;;;;;;;;;;4983806;28;20577;-59
2023/09/25 09:38:33;;;;;;;9.02;4.05;;;;;;;;;;4995626;28;20562;-59
2023/09/25 09:40:58;;;;;;;10.60;4.22;;;;;;;;;;4978411;28;20422;-60
2023/09/25 09:43:24;;;;;;;6.65;3.80;;;;;;;;;;4994036;28;20034;-61
2023/09/25 09:45:52;;;;;;;6.97;3.67;;;;;;;;;;4995189;28;20034;-60
2023/09/25 09:48:18;;;;;;;7.80;3.90;;;;;;;;;;4995474;28;20034;-62
2023/09/25 09:50:44;;;;;;;6.57;3.70;;;;;;;;;;4993267;28;20578;-59
2023/09/25 09:53:09;;;;;;;5.40;3.15;;;;;;;;;;4993175;28;20034;-60
2023/09/25 09:55:35;;;;;;;5.80;2.90;;;;;;;;;;4984346;28;20042;-59
2023/09/25 09:58:00;;;;;;;6.97;3.30;;;;;;;;;;4994932;28;20548;-60
2023/09/25 10:00:25;;;;;;;5.47;3.30;;;;;;;;;;4981964;28;20071;-58
2023/09/25 10:02:50;;;;;;;5.33;3.70;;;;;;;;;;4995252;28;20527;-61
2023/09/25 10:05:17;;;;;;;4.87;3.30;;;;;;;;;;4993046;28;21416;-59
2023/09/25 10:08:03;;;;;;;6.90;3.65;;;;;;;;;;4993847;28;20285;-60
2023/09/25 10:10:29;;;;;;;5.60;3.45;;;;;;;;;;4992171;28;20053;-60
2023/09/25 10:12:54;;;;;;;6.60;3.38;;;;;;;;;;4995157;28;20105;-59
2023/09/25 10:15:23;;;;;;;6.45;3.47;;;;;;;;;;4993377;28;20056;-61
2023/09/25 10:17:48;;;;;;;7.28;3.78;;;;;;;;;;4993358;28;20034;-60
2023/09/25 10:20:33;;;;;;;5.20;3.03;;;;;;;;;;4994239;28;20038;-59
2023/09/25 10:23:18;;;;;;;4.63;2.88;;;;;;;;;;4994805;28;20060;-60
2023/09/25 10:25:45;;;;;;;8.57;3.28;;;;;;;;;;4993391;28;20133;-60
2023/09/25 10:28:17;;;;;;;6.20;3.80;;;;;;;;;;4980125;28;20132;-60
2023/09/25 10:30:42;;;;;;;5.47;3.10;;;;;;;;;;4992487;28;20037;-60
2023/09/25 10:33:07;;;;;;;6.82;3.30;;;;;;;;;;4993575;28;20510;-59
2023/09/25 10:35:36;;;;;;;6.82;3.55;;;;;;;;;;4993085;28;20054;-58
2023/09/25 10:38:11;;;;;;;5.82;3.30;;;;;;;;;;4991194;28;20128;-60
2023/09/25 10:40:36;;;;;;;6.47;3.20;;;;;;;;;;4981272;28;20456;-58
2023/09/25 10:43:02;;;;;;;5.65;3.25;;;;;;;;;;4994041;28;20022;-59
2023/09/25 10:45:27;;;;;;;5.50;3.60;;;;;;;;;;4981835;28;20532;-58
2023/09/25 10:47:53;;;;;;;7.20;3.60;;;;;;;;;;4994834;28;20025;-59
2023/09/25 10:50:18;;;;;;;5.32;3.42;;;;;;;;;;4994479;28;20344;-57
2023/09/25 10:52:43;;;;;;;5.82;2.83;;;;;;;;;;4994086;28;20046;-58
2023/09/25 10:55:09;;;;;;;4.90;3.28;;;;;;;;;;4976152;28;20030;-59
2023/09/25 10:57:34;;;;;;;5.35;3.00;;;;;;;;;;4993848;28;20040;-59
2023/09/25 11:00:09;;;;;;;6.03;2.90;;;;;;;;;;5010781;23;20025;-62
2023/09/25 11:02:34;;;;;;;5.13;3.28;;;;;;;;;;4998112;28;20393;-62
2023/09/25 11:04:59;;;;;;;7.13;3.20;;;;;;;;;;5011133;28;23198;-62
2023/09/25 11:07:26;;;;;;;9.68;3.70;;;;;;;;;;5024467;28;20297;-62
2023/09/25 11:09:55;;;;;;;7.13;3.40;;;;;;;;;;4998781;28;20340;-61
2023/09/25 11:12:20;;;;;;;5.28;2.90;;;;;;;;;;5012117;28;20112;-61
2023/09/25 11:14:45;;;;;;;5.40;3.40;;;;;;;;;;4999649;28;20049;-62
2023/09/25 11:17:10;;;;;;;4.78;3.30;;;;;;;;;;5011386;28;20303;-60
2023/09/25 11:22:04;;;;;;;5.97;3.63;;;;;;;;;;5012720;28;20711;-60
2023/09/25 11:24:31;;;;;;;5.38;3.38;;;;;;;;;;4993002;28;20038;-61
2023/09/25 11:26:56;;;;;;;5.90;3.22;;;;;;;;;;5033071;28;20133;-60
2023/09/25 11:29:21;;;;;;;6.47;3.25;;;;;;;;;;5009991;28;20104;-60
2023/09/25 11:31:46;;;;;;;7.95;3.50;;;;;;;;;;5014573;28;20037;-59
2023/09/25 11:34:12;;;;;;;4.38;3.22;;;;;;;;;;5015706;28;20099;-59
2023/09/25 11:36:44;;;;;;;6.63;3.25;;;;;;;;;;5008071;28;20050;-59
2023/09/25 11:39:16;;;;;;;5.35;3.72;;;;;;;;;;5022405;28;20033;-61
2023/09/25 11:41:41;;;;;;;8.15;3.88;;;;;;;;;;5015832;28;20135;-60
2023/09/25 11:44:07;;;;;;;8.43;3.80;;;;;;;;;;5023763;28;20068;-59
2023/09/25 11:46:32;;;;;;;6.63;4.10;;;;;;;;;;5024217;28;20079;-60
2023/09/25 11:48:57;;;;;;;6.73;4.53;;;;;;;;;;5024223;28;20153;-60
2023/09/25 11:51:23;;;;;;;5.75;3.97;;;;;;;;;;5015465;28;20296;-60
2023/09/25 11:53:48;;;;;;;6.15;4.38;;;;;;;;;;5030761;28;20442;-60
2023/09/25 11:56:14;;;;;;;9.68;5.15;;;;;;;;;;5014735;28;20048;-60
2023/09/25 11:58:39;;;;;;;6.82;4.90;;;;;;;;;;5007524;28;20033;-60
2023/09/25 12:01:05;;;;;;;6.82;5.18;;;;;;;;;;5015709;28;20029;-60
2023/09/25 12:03:38;;;;;;;8.32;5.30;;;;;;;;;;5027512;28;20037;-60
2023/09/25 12:06:03;;;;;;;8.27;5.65;;;;;;;;;;5030205;28;20045;-60
2023/09/25 12:08:28;;;;;;;11.07;5.15;;;;;;;;;;5022714;28;20108;-61
2023/09/25 12:10:55;;;;;;;9.00;5.40;;;;;;;;;;5032444;28;20374;-61
2023/09/25 12:13:20;;;;;;;10.85;5.82;;;;;;;;;;5025033;28;20354;-60
2023/09/25 12:15:46;;;;;;;9.95;5.53;;;;;;;;;;5023235;28;20083;-61
2023/09/25 12:18:11;;;;;;;9.32;5.47;;;;;;;;;;5024354;28;20041;-61
2023/09/25 12:20:37;;;;;;;7.40;5.60;;;;;;;;;;5022820;28;20121;-61
2023/09/25 12:23:03;;;;;;;9.43;6.93;;;;;;;;;;5023614;28;20287;-62
2023/09/25 12:25:29;;;;;;;11.57;6.47;;;;;;;;;;5036109;28;20109;-61
2023/09/25 12:27:54;;;;;;;11.15;6.30;;;;;;;;;;5009162;28;20111;-61
2023/09/25 12:30:20;;;;;;;10.68;6.22;;;;;;;;;;5037201;28;20060;-61
2023/09/25 12:32:49;;;;;;;8.75;6.32;;;;;;;;;;5038878;28;20138;-60
2023/09/25 12:35:18;;;;;;;10.18;7.05;;;;;;;;;;5022037;28;20041;-60
2023/09/25 12:37:47;;;;;;;11.13;6.82;;;;;;;;;;5023273;28;20049;-60
2023/09/25 12:40:15;;;;;;;16.00;7.63;;;;;;;;;;5040780;28;20727;-61
2023/09/25 12:42:40;;;;;;;13.75;6.85;;;;;;;;;;5026328;28;20071;-61
2023/09/25 12:45:06;;;;;;;10.55;6.72;;;;;;;;;;5023998;28;20033;-60
2023/09/25 12:47:32;;;;;;;10.32;7.32;;;;;;;;;;5030394;28;20160;-59
2023/09/25 12:49:58;;;;;;;12.50;7.75;;;;;;;;;;5030475;28;20596;-59
2023/09/25 12:52:23;;;;;;;11.00;7.20;;;;;;;;;;5028559;28;20031;-59
2023/09/25 12:54:49;;;;;;;10.65;6.90;;;;;;;;;;5022208;28;20056;-58
2023/09/25 12:57:15;;;;;;;14.18;7.05;;;;;;;;;;5024211;28;20120;-59
2023/09/25 12:59:40;;;;;;;10.43;6.70;;;;;;;;;;5051756;28;20131;-58
2023/09/25 13:02:06;;;;;;;9.17;6.63;;;;;;;;;;5032977;28;20489;-58
2023/09/25 13:04:32;;;;;;;11.93;6.77;;;;;;;;;;5022051;28;20287;-58
2023/09/25 13:06:57;;;;;;;12.82;7.22;;;;;;;;;;5039650;28;20750;-59
2023/09/25 13:09:22;;;;;;;12.02;6.75;;;;;;;;;;5039369;28;20057;-57
2023/09/25 13:11:48;;;;;;;11.85;6.45;;;;;;;;;;5045808;28;20034;-57
2023/09/25 13:14:14;;;;;;;10.85;6.15;;;;;;;;;;5030855;28;20478;-58
2023/09/25 13:16:39;;;;;;;10.02;6.40;;;;;;;;;;5029294;28;20101;-58
2023/09/25 13:19:05;;;;;;;9.98;6.13;;;;;;;;;;5023802;28;20490;-59
2023/09/25 13:21:30;;;;;;;10.80;6.32;;;;;;;;;;5039310;28;20037;-60
2023/09/25 13:23:56;;;;;;;11.40;5.83;;;;;;;;;;5023610;28;20033;-60
2023/09/25 13:26:25;;;;;;;10.32;5.72;;;;;;;;;;5023389;28;20281;-60
2023/09/25 13:28:51;;;;;;;9.70;5.78;;;;;;;;;;5022443;28;20044;-60
2023/09/25 13:31:16;;;;;;;10.70;5.53;;;;;;;;;;5022153;28;20025;-60
2023/09/25 13:33:41;;;;;;;11.95;5.93;;;;;;;;;;5022472;28;20151;-60
2023/09/25 13:36:06;;;;;;;9.73;6.00;;;;;;;;;;5041685;28;20700;-60
2023/09/25 13:38:32;;;;;;;10.27;6.05;;;;;;;;;;5028190;28;20268;-60
2023/09/25 13:40:57;;;;;;;8.82;5.50;;;;;;;;;;5024120;28;20186;-60
2023/09/25 13:43:22;;;;;;;7.88;5.28;;;;;;;;;;5023189;28;20025;-59
2023/09/25 13:45:48;;;;;;;10.00;5.60;;;;;;;;;;5021854;28;20057;-59
2023/09/25 13:48:13;;;;;;;10.02;5.70;;;;;;;;;;5039753;28;20056;-59
2023/09/25 13:50:38;;;;;;;9.23;5.33;;;;;;;;;;5022472;28;20508;-59
2023/09/25 13:53:04;;;;;;;8.32;5.45;;;;;;;;;;5023408;28;20279;-60
2023/09/25 13:55:29;;;;;;;10.20;5.17;;;;;;;;;;5022981;28;20125;-59
2023/09/25 13:57:55;;;;;;;8.02;4.97;;;;;;;;;;5025130;28;20911;-60
2023/09/25 14:00:20;;;;;;;11.35;5.70;;;;;;;;;;5026828;28;20029;-59
2023/09/25 14:02:45;;;;;;;7.22;5.35;;;;;;;;;;5027269;28;20125;-59
2023/09/25 14:05:14;;;;;;;8.52;5.20;;;;;;;;;;5026229;28;20041;-60
2023/09/25 14:07:39;;;;;;;8.40;5.10;;;;;;;;;;5026660;28;20494;-59
2023/09/25 14:10:05;;;;;;;8.65;5.47;;;;;;;;;;5026728;28;20083;-60
2023/09/25 14:12:30;;;;;;;8.07;5.35;;;;;;;;;;5033749;28;20087;-60
2023/09/25 14:14:57;;;;;;;9.17;5.13;;;;;;;;;;5041614;28;20053;-60
2023/09/25 14:17:22;;;;;;;9.27;5.28;;;;;;;;;;5025083;28;20283;-60
2023/09/25 14:19:47;;;;;;;7.60;5.20;;;;;;;;;;5025843;28;20021;-60
2023/09/25 14:22:12;;;;;;;8.10;5.20;;;;;;;;;;5026189;28;20093;-60
2023/09/25 14:24:38;;;;;;;8.95;4.80;;;;;;;;;;5025952;28;20034;-59
2023/09/25 14:27:03;;;;;;;6.57;4.82;;;;;;;;;;5026930;28;20041;-60
2023/09/25 14:29:29;;;;;;;9.10;5.22;;;;;;;;;;5025253;28;20516;-61
2023/09/25 14:31:55;;;;;;;7.70;5.03;;;;;;;;;;5038916;28;20026;-60
2023/09/25 14:34:20;;;;;;;8.10;4.72;;;;;;;;;;5024262;28;20033;-60